sensor_id;sensor_type;location;lat;lon;timestamp;pressure;altitude;pressure_sealevel;temperature;humidity
74329;BME280;62749;51.982;5.916;2023-07-31T00:00:18;100776.97;;;15.75;100.00
74329;BME280;62749;51.982;5.916;2023-07-31T00:02:47;100777.41;;;15.82;100.00
74329;BME280;62749;51.982;5.916;2023-07-31T00:05:16;100775.81;;;15.79;100.00
74329;BME280;62749;51.982;5.916;2023-07-31T00:07:48;100767.00;;;15.79;100.00
74329;BME280;62749;51.982;5.916;2023-07-31T00:10:18;100755.47;;;15.78;100.00
74329;BME280;62749;51.982;5.916;2023-07-31T00:12:47;100755.00;;;15.72;100.00
74329;BME280;62749;51.982;5.916;2023-07-31T00:15:16;100755.75;;;15.74;100.00
74329;BME280;62749;51.982;5.916;2023-07-31T00:17:46;100744.03;;;15.76;100.00
74329;BME280;62749;51.982;5.916;2023-07-31T00:20:15;100745.38;;;15.84;100.00
74329;BME280;62749;51.982;5.916;2023-07-31T00:22:45;100727.25;;;15.61;100.00
74329;BME280;62749;51.982;5.916;2023-07-31T00:25:17;100739.59;;;15.77;100.00
74329;BME280;62749;51.982;5.916;2023-07-31T00:27:46;100737.31;;;15.85;100.00
74329;BME280;62749;51.982;5.916;2023-07-31T00:30:15;100742.78;;;15.82;100.00
74329;BME280;62749;51.982;5.916;2023-07-31T00:32:45;100728.75;;;15.80;100.00
74329;BME280;62749;51.982;5.916;2023-07-31T00:35:15;100732.75;;;15.87;100.00
74329;BME280;62749;51.982;5.916;2023-07-31T00:37:44;100725.41;;;15.91;100.00
74329;BME280;62749;51.982;5.916;2023-07-31T00:40:13;100723.69;;;15.90;100.00
74329;BME280;62749;51.982;5.916;2023-07-31T00:42:45;100719.38;;;16.02;100.00
74329;BME280;62749;51.982;5.916;2023-07-31T00:45:15;100716.72;;;16.02;100.00
74329;BME280;62749;51.982;5.916;2023-07-31T00:47:44;100726.84;;;16.09;100.00
74329;BME280;62749;51.982;5.916;2023-07-31T00:50:14;100720.16;;;16.17;100.00
74329;BME280;62749;51.982;5.916;2023-07-31T00:52:44;100719.84;;;16.21;100.00
74329;BME280;62749;51.982;5.916;2023-07-31T00:55:13;100715.06;;;16.26;100.00
74329;BME280;62749;51.982;5.916;2023-07-31T00:57:46;100711.25;;;16.31;100.00
74329;BME280;62749;51.982;5.916;2023-07-31T01:00:15;100707.06;;;16.26;100.00
74329;BME280;62749;51.982;5.916;2023-07-31T01:02:45;100712.53;;;16.38;100.00
74329;BME280;62749;51.982;5.916;2023-07-31T01:05:15;100707.84;;;16.41;100.00
74329;BME280;62749;51.982;5.916;2023-07-31T01:07:52;100695.38;;;16.42;100.00
74329;BME280;62749;51.982;5.916;2023-07-31T01:10:24;100697.41;;;16.51;100.00
74329;BME280;62749;51.982;5.916;2023-07-31T01:12:58;100696.31;;;16.54;100.00
74329;BME280;62749;51.982;5.916;2023-07-31T01:15:28;100700.38;;;16.60;100.00
74329;BME280;62749;51.982;5.916;2023-07-31T01:17:57;100688.25;;;16.55;100.00
74329;BME280;62749;51.982;5.916;2023-07-31T01:20:29;100686.09;;;16.61;100.00
74329;BME280;62749;51.982;5.916;2023-07-31T01:23:23;100683.75;;;16.69;100.00
74329;BME280;62749;51.982;5.916;2023-07-31T01:26:04;100684.72;;;16.68;100.00
74329;BME280;62749;51.982;5.916;2023-07-31T01:28:48;100689.72;;;16.72;100.00
74329;BME280;62749;51.982;5.916;2023-07-31T01:31:23;100695.91;;;16.73;100.00
74329;BME280;62749;51.982;5.916;2023-07-31T01:33:57;100695.91;;;16.73;100.00
74329;BME280;62749;51.982;5.916;2023-07-31T01:36:30;100692.53;;;16.71;100.00
74329;BME280;62749;51.982;5.916;2023-07-31T01:39:01;100682.69;;;16.71;100.00
74329;BME280;62749;51.982;5.916;2023-07-31T01:41:33;100689.53;;;16.76;100.00
74329;BME280;62749;51.982;5.916;2023-07-31T01:44:02;100683.88;;;16.80;100.00
74329;BME280;62749;51.982;5.916;2023-07-31T01:46:32;100685.78;;;16.78;100.00
74329;BME280;62749;51.982;5.916;2023-07-31T01:49:01;100677.56;;;16.81;100.00
74329;BME280;62749;51.982;5.916;2023-07-31T01:51:32;100677.03;;;16.76;100.00
74329;BME280;62749;51.982;5.916;2023-07-31T01:54:03;100668.06;;;16.77;100.00
74329;BME280;62749;51.982;5.916;2023-07-31T01:56:35;100668.28;;;16.74;100.00
74329;BME280;62749;51.982;5.916;2023-07-31T01:59:04;100670.72;;;16.77;100.00
74329;BME280;62749;51.982;5.916;2023-07-31T02:01:33;100666.34;;;16.76;100.00
74329;BME280;62749;51.982;5.916;2023-07-31T02:04:03;100654.72;;;16.77;100.00
74329;BME280;62749;51.982;5.916;2023-07-31T02:06:33;100660.28;;;16.74;100.00
74329;BME280;62749;51.982;5.916;2023-07-31T02:09:02;100664.44;;;16.78;100.00
74329;BME280;62749;51.982;5.916;2023-07-31T02:11:31;100661.97;;;16.75;100.00
74329;BME280;62749;51.982;5.916;2023-07-31T02:14:03;100673.59;;;16.74;100.00
74329;BME280;62749;51.982;5.916;2023-07-31T02:16:33;100664.66;;;16.75;100.00
74329;BME280;62749;51.982;5.916;2023-07-31T02:19:02;100656.66;;;16.75;100.00
74329;BME280;62749;51.982;5.916;2023-07-31T02:21:31;100655.91;;;16.73;100.00
74329;BME280;62749;51.982;5.916;2023-07-31T02:24:01;100649.84;;;16.71;100.00
74329;BME280;62749;51.982;5.916;2023-07-31T02:26:30;100649.84;;;16.58;100.00
74329;BME280;62749;51.982;5.916;2023-07-31T02:28:59;100653.03;;;16.50;100.00
74329;BME280;62749;51.982;5.916;2023-07-31T02:31:31;100644.28;;;16.48;100.00
74329;BME280;62749;51.982;5.916;2023-07-31T02:34:01;100654.53;;;16.54;100.00
74329;BME280;62749;51.982;5.916;2023-07-31T02:36:30;100653.78;;;16.52;100.00
74329;BME280;62749;51.982;5.916;2023-07-31T02:38:59;100641.19;;;16.54;100.00
74329;BME280;62749;51.982;5.916;2023-07-31T02:41:30;100640.25;;;16.55;100.00
74329;BME280;62749;51.982;5.916;2023-07-31T02:43:59;100645.25;;;16.60;100.00
74329;BME280;62749;51.982;5.916;2023-07-31T02:46:31;100633.84;;;16.58;100.00
74329;BME280;62749;51.982;5.916;2023-07-31T02:49:01;100636.28;;;16.61;100.00
74329;BME280;62749;51.982;5.916;2023-07-31T02:51:30;100640.03;;;16.59;100.00
74329;BME280;62749;51.982;5.916;2023-07-31T02:53:59;100617.19;;;16.41;100.00
74329;BME280;62749;51.982;5.916;2023-07-31T02:56:29;100644.38;;;16.60;100.00
74329;BME280;62749;51.982;5.916;2023-07-31T02:58:58;100645.75;;;16.65;100.00
74329;BME280;62749;51.982;5.916;2023-07-31T03:01:27;100633.19;;;16.67;100.00
74329;BME280;62749;51.982;5.916;2023-07-31T03:03:57;100642.06;;;16.68;100.00
74329;BME280;62749;51.982;5.916;2023-07-31T03:06:26;100642.59;;;16.60;100.00
74329;BME280;62749;51.982;5.916;2023-07-31T03:08:56;100633.00;;;16.58;100.00
74329;BME280;62749;51.982;5.916;2023-07-31T03:11:25;100634.72;;;16.59;100.00
74329;BME280;62749;51.982;5.916;2023-07-31T03:13:54;100635.66;;;16.58;100.00
74329;BME280;62749;51.982;5.916;2023-07-31T03:16:24;100634.25;;;16.65;100.00
74329;BME280;62749;51.982;5.916;2023-07-31T03:18:53;100630.97;;;16.61;100.00
74329;BME280;62749;51.982;5.916;2023-07-31T03:21:25;100640.03;;;16.59;100.00
74329;BME280;62749;51.982;5.916;2023-07-31T03:23:55;100639.16;;;16.58;100.00
74329;BME280;62749;51.982;5.916;2023-07-31T03:26:24;100638.00;;;16.62;100.00
74329;BME280;62749;51.982;5.916;2023-07-31T03:28:53;100640.88;;;16.59;100.00
74329;BME280;62749;51.982;5.916;2023-07-31T03:31:23;100633.72;;;16.60;100.00
74329;BME280;62749;51.982;5.916;2023-07-31T03:33:52;100625.72;;;16.60;100.00
74329;BME280;62749;51.982;5.916;2023-07-31T03:36:22;100630.09;;;16.61;100.00
74329;BME280;62749;51.982;5.916;2023-07-31T03:38:54;100627.84;;;16.67;100.00
74329;BME280;62749;51.982;5.916;2023-07-31T03:41:23;100636.16;;;16.63;100.00
74329;BME280;62749;51.982;5.916;2023-07-31T03:43:52;100632.34;;;16.54;100.00
74329;BME280;62749;51.982;5.916;2023-07-31T03:46:22;100638.53;;;16.54;100.00
74329;BME280;62749;51.982;5.916;2023-07-31T03:48:52;100630.00;;;16.62;100.00
74329;BME280;62749;51.982;5.916;2023-07-31T03:51:21;100623.03;;;16.60;100.00
74329;BME280;62749;51.982;5.916;2023-07-31T03:53:50;100619.88;;;16.54;100.00
74329;BME280;62749;51.982;5.916;2023-07-31T03:56:22;100624.34;;;16.54;100.00
74329;BME280;62749;51.982;5.916;2023-07-31T03:58:52;100627.13;;;16.52;100.00
74329;BME280;62749;51.982;5.916;2023-07-31T04:01:21;100628.06;;;16.51;100.00
74329;BME280;62749;51.982;5.916;2023-07-31T04:03:50;100619.53;;;16.46;100.00
74329;BME280;62749;51.982;5.916;2023-07-31T04:06:20;100624.44;;;16.52;100.00
74329;BME280;62749;51.982;5.916;2023-07-31T04:08:50;100618.16;;;16.53;100.00
74329;BME280;62749;51.982;5.916;2023-07-31T04:11:22;100627.00;;;16.54;100.00
74329;BME280;62749;51.982;5.916;2023-07-31T04:13:51;100610.16;;;16.53;99.87
74329;BME280;62749;51.982;5.916;2023-07-31T04:16:20;100611.31;;;16.49;99.69
74329;BME280;62749;51.982;5.916;2023-07-31T04:18:50;100606.22;;;16.59;99.37
74329;BME280;62749;51.982;5.916;2023-07-31T04:21:19;100611.41;;;16.61;99.63
74329;BME280;62749;51.982;5.916;2023-07-31T04:23:48;100603.22;;;16.64;99.34
74329;BME280;62749;51.982;5.916;2023-07-31T04:26:24;100608.75;;;16.61;98.31
74329;BME280;62749;51.982;5.916;2023-07-31T04:28:54;100602.47;;;16.62;99.09
74329;BME280;62749;51.982;5.916;2023-07-31T04:31:23;100601.63;;;16.61;99.38
74329;BME280;62749;51.982;5.916;2023-07-31T04:33:52;100596.63;;;16.56;98.24
74329;BME280;62749;51.982;5.916;2023-07-31T04:36:22;100600.66;;;16.62;98.46
74329;BME280;62749;51.982;5.916;2023-07-31T04:38:51;100600.44;;;16.65;98.62
74329;BME280;62749;51.982;5.916;2023-07-31T04:41:21;100598.41;;;16.69;99.12
74329;BME280;62749;51.982;5.916;2023-07-31T04:43:53;100590.84;;;16.63;98.50
74329;BME280;62749;51.982;5.916;2023-07-31T04:46:22;100591.38;;;16.68;98.75
74329;BME280;62749;51.982;5.916;2023-07-31T04:48:52;100585.38;;;16.77;98.15
74329;BME280;62749;51.982;5.916;2023-07-31T04:51:21;100594.34;;;16.76;97.33
74329;BME280;62749;51.982;5.916;2023-07-31T04:53:51;100591.66;;;16.76;96.92
74329;BME280;62749;51.982;5.916;2023-07-31T04:56:20;100589.00;;;16.76;97.28
74329;BME280;62749;51.982;5.916;2023-07-31T04:58:52;100585.59;;;16.74;98.66
74329;BME280;62749;51.982;5.916;2023-07-31T05:01:22;100580.38;;;16.72;99.40
74329;BME280;62749;51.982;5.916;2023-07-31T05:03:51;100573.47;;;16.70;96.51
74329;BME280;62749;51.982;5.916;2023-07-31T05:06:21;100582.63;;;16.66;97.98
74329;BME280;62749;51.982;5.916;2023-07-31T05:08:50;100579.09;;;16.65;96.86
74329;BME280;62749;51.982;5.916;2023-07-31T05:11:19;100578.56;;;16.73;96.50
74329;BME280;62749;51.982;5.916;2023-07-31T05:13:49;100583.03;;;16.72;96.75
74329;BME280;62749;51.982;5.916;2023-07-31T05:16:21;100569.09;;;16.69;96.35
74329;BME280;62749;51.982;5.916;2023-07-31T05:18:50;100564.50;;;16.71;98.00
74329;BME280;62749;51.982;5.916;2023-07-31T05:21:19;100568.13;;;16.70;97.15
74329;BME280;62749;51.982;5.916;2023-07-31T05:23:49;100568.13;;;16.70;96.21
74329;BME280;62749;51.982;5.916;2023-07-31T05:26:18;100555.91;;;16.79;96.38
74329;BME280;62749;51.982;5.916;2023-07-31T05:28:47;100546.78;;;16.70;97.44
74329;BME280;62749;51.982;5.916;2023-07-31T05:31:17;100549.75;;;16.65;97.40
74329;BME280;62749;51.982;5.916;2023-07-31T05:33:49;100556.72;;;16.68;96.84
74329;BME280;62749;51.982;5.916;2023-07-31T05:36:19;100561.09;;;16.56;98.58
74329;BME280;62749;51.982;5.916;2023-07-31T05:38:48;100561.97;;;16.56;99.27
74329;BME280;62749;51.982;5.916;2023-07-31T05:41:18;100557.91;;;16.51;100.00
74329;BME280;62749;51.982;5.916;2023-07-31T05:43:47;100556.84;;;16.53;100.00
74329;BME280;62749;51.982;5.916;2023-07-31T05:46:17;100554.28;;;16.52;100.00
74329;BME280;62749;51.982;5.916;2023-07-31T05:48:49;100550.88;;;16.50;100.00
74329;BME280;62749;51.982;5.916;2023-07-31T05:51:19;100562.81;;;16.44;100.00
74329;BME280;62749;51.982;5.916;2023-07-31T05:53:48;100555.66;;;16.45;100.00
74329;BME280;62749;51.982;5.916;2023-07-31T05:56:17;100560.03;;;16.46;100.00
74329;BME280;62749;51.982;5.916;2023-07-31T05:58:47;100549.50;;;16.44;100.00
74329;BME280;62749;51.982;5.916;2023-07-31T06:01:17;100549.41;;;16.33;100.00
74329;BME280;62749;51.982;5.916;2023-07-31T06:03:50;100549.72;;;16.41;100.00
74329;BME280;62749;51.982;5.916;2023-07-31T06:06:19;100538.50;;;16.36;100.00
74329;BME280;62749;51.982;5.916;2023-07-31T06:08:49;100533.41;;;16.33;100.00
74329;BME280;62749;51.982;5.916;2023-07-31T06:11:20;100531.47;;;16.35;100.00
74329;BME280;62749;51.982;5.916;2023-07-31T06:13:50;100535.50;;;16.40;100.00
74329;BME280;62749;51.982;5.916;2023-07-31T06:16:19;100527.31;;;16.44;100.00
74329;BME280;62749;51.982;5.916;2023-07-31T06:18:51;100520.59;;;16.38;100.00
74329;BME280;62749;51.982;5.916;2023-07-31T06:21:20;100515.06;;;16.41;100.00
74329;BME280;62749;51.982;5.916;2023-07-31T06:23:50;100514.94;;;16.42;100.00
74329;BME280;62749;51.982;5.916;2023-07-31T06:26:19;100515.34;;;16.49;100.00
74329;BME280;62749;51.982;5.916;2023-07-31T06:28:49;100510.88;;;16.50;100.00
74329;BME280;62749;51.982;5.916;2023-07-31T06:31:18;100511.94;;;16.47;100.00
74329;BME280;62749;51.982;5.916;2023-07-31T06:33:52;100507.13;;;16.52;100.00
74329;BME280;62749;51.982;5.916;2023-07-31T06:36:21;100504.59;;;16.51;100.00
74329;BME280;62749;51.982;5.916;2023-07-31T06:38:51;100497.44;;;16.51;100.00
74329;BME280;62749;51.982;5.916;2023-07-31T06:41:20;100496.13;;;16.57;100.00
74329;BME280;62749;51.982;5.916;2023-07-31T06:43:49;100493.88;;;16.64;100.00
74329;BME280;62749;51.982;5.916;2023-07-31T06:46:19;100489.63;;;16.61;100.00
74329;BME280;62749;51.982;5.916;2023-07-31T06:48:48;100496.41;;;16.65;100.00
74329;BME280;62749;51.982;5.916;2023-07-31T06:51:20;100485.13;;;16.62;100.00
74329;BME280;62749;51.982;5.916;2023-07-31T06:53:49;100481.00;;;16.58;100.00
74329;BME280;62749;51.982;5.916;2023-07-31T06:56:20;100481.50;;;16.63;100.00
74329;BME280;62749;51.982;5.916;2023-07-31T06:58:50;100481.81;;;16.71;100.00
74329;BME280;62749;51.982;5.916;2023-07-31T07:01:19;100468.78;;;16.66;100.00
74329;BME280;62749;51.982;5.916;2023-07-31T07:03:49;100480.00;;;16.71;100.00
74329;BME280;62749;51.982;5.916;2023-07-31T07:06:22;100475.63;;;16.70;100.00
74329;BME280;62749;51.982;5.916;2023-07-31T07:08:51;100488.22;;;16.68;100.00
74329;BME280;62749;51.982;5.916;2023-07-31T07:11:21;100469.75;;;16.65;100.00
74329;BME280;62749;51.982;5.916;2023-07-31T07:13:50;100468.34;;;16.72;100.00
74329;BME280;62749;51.982;5.916;2023-07-31T07:16:20;100475.41;;;16.74;100.00
74329;BME280;62749;51.982;5.916;2023-07-31T07:18:49;100477.28;;;16.84;100.00
74329;BME280;62749;51.982;5.916;2023-07-31T07:21:21;100464.44;;;16.90;100.00
74329;BME280;62749;51.982;5.916;2023-07-31T07:23:50;100462.00;;;16.86;100.00
74329;BME280;62749;51.982;5.916;2023-07-31T07:26:20;100458.38;;;16.87;100.00
74329;BME280;62749;51.982;5.916;2023-07-31T07:28:49;100452.06;;;16.88;100.00
74329;BME280;62749;51.982;5.916;2023-07-31T07:31:18;100456.66;;;16.86;100.00
74329;BME280;62749;51.982;5.916;2023-07-31T07:33:48;100450.28;;;16.89;100.00
74329;BME280;62749;51.982;5.916;2023-07-31T07:36:17;100456.31;;;16.91;100.00
74329;BME280;62749;51.982;5.916;2023-07-31T07:38:49;100458.03;;;16.92;100.00
74329;BME280;62749;51.982;5.916;2023-07-31T07:41:18;100451.22;;;16.88;100.00
74329;BME280;62749;51.982;5.916;2023-07-31T07:43:48;100462.66;;;16.90;100.00
74329;BME280;62749;51.982;5.916;2023-07-31T07:46:18;100467.34;;;16.86;100.00
74329;BME280;62749;51.982;5.916;2023-07-31T07:48:47;100449.84;;;16.95;100.00
74329;BME280;62749;51.982;5.916;2023-07-31T07:51:16;100456.03;;;16.96;100.00
74329;BME280;62749;51.982;5.916;2023-07-31T07:53:48;100460.91;;;17.02;100.00
74329;BME280;62749;51.982;5.916;2023-07-31T07:56:18;100453.03;;;17.00;100.00
74329;BME280;62749;51.982;5.916;2023-07-31T07:58:48;100457.03;;;17.06;100.00
74329;BME280;62749;51.982;5.916;2023-07-31T08:01:18;100446.25;;;17.08;100.00
74329;BME280;62749;51.982;5.916;2023-07-31T08:03:47;100448.16;;;17.06;100.00
74329;BME280;62749;51.982;5.916;2023-07-31T08:06:17;100443.81;;;17.05;100.00
74329;BME280;62749;51.982;5.916;2023-07-31T08:08:49;100438.84;;;17.11;100.00
74329;BME280;62749;51.982;5.916;2023-07-31T08:11:18;100434.81;;;17.06;100.00
74329;BME280;62749;51.982;5.916;2023-07-31T08:13:49;100437.78;;;17.14;100.00
74329;BME280;62749;51.982;5.916;2023-07-31T08:16:19;100435.47;;;17.09;100.00
74329;BME280;62749;51.982;5.916;2023-07-31T08:18:48;100429.88;;;17.12;100.00
74329;BME280;62749;51.982;5.916;2023-07-31T08:21:17;100435.22;;;17.12;100.00
74329;BME280;62749;51.982;5.916;2023-07-31T08:23:49;100435.00;;;17.15;100.00
74329;BME280;62749;51.982;5.916;2023-07-31T08:26:19;100439.25;;;17.18;100.00
74329;BME280;62749;51.982;5.916;2023-07-31T08:28:49;100436.25;;;17.23;100.00
74329;BME280;62749;51.982;5.916;2023-07-31T08:31:19;100436.97;;;17.25;100.00
74329;BME280;62749;51.982;5.916;2023-07-31T08:33:48;100435.03;;;17.27;100.00
74329;BME280;62749;51.982;5.916;2023-07-31T08:36:18;100432.97;;;17.30;100.00
74329;BME280;62749;51.982;5.916;2023-07-31T08:38:50;100427.41;;;17.33;100.00
74329;BME280;62749;51.982;5.916;2023-07-31T08:41:20;100433.88;;;17.42;100.00
74329;BME280;62749;51.982;5.916;2023-07-31T08:43:52;100429.50;;;17.41;100.00
74329;BME280;62749;51.982;5.916;2023-07-31T08:46:21;100428.41;;;17.44;100.00
74329;BME280;62749;51.982;5.916;2023-07-31T08:48:51;100421.13;;;17.46;100.00
74329;BME280;62749;51.982;5.916;2023-07-31T08:51:21;100425.59;;;17.34;100.00
74329;BME280;62749;51.982;5.916;2023-07-31T08:53:53;100426.44;;;17.35;100.00
74329;BME280;62749;51.982;5.916;2023-07-31T08:56:26;100429.63;;;17.40;100.00
74329;BME280;62749;51.982;5.916;2023-07-31T08:58:57;100431.56;;;17.49;100.00
74329;BME280;62749;51.982;5.916;2023-07-31T09:01:30;100426.97;;;17.51;100.00
74329;BME280;62749;51.982;5.916;2023-07-31T09:04:04;100428.16;;;17.47;100.00
74329;BME280;62749;51.982;5.916;2023-07-31T09:06:35;100424.88;;;17.43;100.00
74329;BME280;62749;51.982;5.916;2023-07-31T09:09:07;100427.94;;;17.50;100.00
74329;BME280;62749;51.982;5.916;2023-07-31T09:11:37;100420.06;;;17.48;100.00
74329;BME280;62749;51.982;5.916;2023-07-31T09:14:08;100422.22;;;17.43;100.00
74329;BME280;62749;51.982;5.916;2023-07-31T09:16:51;100425.63;;;17.45;100.00
74329;BME280;62749;51.982;5.916;2023-07-31T09:19:28;100415.91;;;17.44;100.00
74329;BME280;62749;51.982;5.916;2023-07-31T09:21:58;100426.38;;;17.47;100.00
74329;BME280;62749;51.982;5.916;2023-07-31T09:24:32;100419.78;;;17.52;100.00
74329;BME280;62749;51.982;5.916;2023-07-31T09:27:02;100413.63;;;17.51;100.00
74329;BME280;62749;51.982;5.916;2023-07-31T09:29:31;100417.00;;;17.42;100.00
74329;BME280;62749;51.982;5.916;2023-07-31T09:32:01;100415.78;;;17.46;100.00
74329;BME280;62749;51.982;5.916;2023-07-31T09:34:37;100409.13;;;17.52;100.00
74329;BME280;62749;51.982;5.916;2023-07-31T09:37:07;100409.84;;;17.54;100.00
74329;BME280;62749;51.982;5.916;2023-07-31T09:39:48;100410.81;;;17.53;100.00
74329;BME280;62749;51.982;5.916;2023-07-31T09:42:25;100409.97;;;17.52;100.00
74329;BME280;62749;51.982;5.916;2023-07-31T09:45:07;100412.75;;;17.51;100.00
74329;BME280;62749;51.982;5.916;2023-07-31T09:47:37;100400.72;;;17.45;100.00
74329;BME280;62749;51.982;5.916;2023-07-31T09:50:07;100394.06;;;17.51;100.00
74329;BME280;62749;51.982;5.916;2023-07-31T09:52:38;100394.41;;;17.46;100.00
74329;BME280;62749;51.982;5.916;2023-07-31T09:55:10;100391.38;;;17.51;100.00
74329;BME280;62749;51.982;5.916;2023-07-31T09:57:42;100399.06;;;17.55;100.00
74329;BME280;62749;51.982;5.916;2023-07-31T10:00:13;100394.09;;;17.62;100.00
74329;BME280;62749;51.982;5.916;2023-07-31T10:02:46;100388.75;;;17.62;100.00
74329;BME280;62749;51.982;5.916;2023-07-31T10:05:16;100397.13;;;17.69;100.00
74329;BME280;62749;51.982;5.916;2023-07-31T10:07:52;100397.25;;;17.67;100.00
74329;BME280;62749;51.982;5.916;2023-07-31T10:10:25;100394.19;;;17.60;100.00
74329;BME280;62749;51.982;5.916;2023-07-31T10:12:56;100390.19;;;17.66;100.00
74329;BME280;62749;51.982;5.916;2023-07-31T10:15:27;100391.16;;;17.65;100.00
74329;BME280;62749;51.982;5.916;2023-07-31T10:17:58;100393.00;;;17.64;100.00
74329;BME280;62749;51.982;5.916;2023-07-31T10:20:29;100386.56;;;17.67;100.00
74329;BME280;62749;51.982;5.916;2023-07-31T10:22:59;100392.13;;;17.75;100.00
74329;BME280;62749;51.982;5.916;2023-07-31T10:25:32;100393.88;;;17.88;100.00
74329;BME280;62749;51.982;5.916;2023-07-31T10:28:02;100385.50;;;18.04;100.00
74329;BME280;62749;51.982;5.916;2023-07-31T10:30:33;100382.34;;;17.99;100.00
74329;BME280;62749;51.982;5.916;2023-07-31T10:33:06;100385.88;;;17.99;100.00
74329;BME280;62749;51.982;5.916;2023-07-31T10:35:36;100396.41;;;18.12;100.00
74329;BME280;62749;51.982;5.916;2023-07-31T10:38:14;100394.97;;;18.19;100.00
74329;BME280;62749;51.982;5.916;2023-07-31T10:40:49;100389.28;;;18.13;100.00
74329;BME280;62749;51.982;5.916;2023-07-31T10:43:25;100401.53;;;18.15;100.00
74329;BME280;62749;51.982;5.916;2023-07-31T10:45:56;100392.31;;;18.19;100.00
74329;BME280;62749;51.982;5.916;2023-07-31T10:48:33;100387.78;;;18.20;100.00
74329;BME280;62749;51.982;5.916;2023-07-31T10:51:07;100384.63;;;18.15;100.00
74329;BME280;62749;51.982;5.916;2023-07-31T10:53:39;100384.38;;;18.18;100.00
74329;BME280;62749;51.982;5.916;2023-07-31T10:56:12;100389.72;;;18.29;100.00
74329;BME280;62749;51.982;5.916;2023-07-31T10:58:45;100383.88;;;18.35;100.00
74329;BME280;62749;51.982;5.916;2023-07-31T11:01:15;100384.47;;;18.39;100.00
74329;BME280;62749;51.982;5.916;2023-07-31T11:03:46;100375.00;;;18.35;100.00
74329;BME280;62749;51.982;5.916;2023-07-31T11:06:18;100375.13;;;18.33;100.00
74329;BME280;62749;51.982;5.916;2023-07-31T11:08:49;100379.25;;;18.37;100.00
74329;BME280;62749;51.982;5.916;2023-07-31T11:11:22;100382.66;;;18.39;100.00
74329;BME280;62749;51.982;5.916;2023-07-31T11:13:52;100380.59;;;18.43;100.00
74329;BME280;62749;51.982;5.916;2023-07-31T11:16:23;100385.53;;;18.48;100.00
74329;BME280;62749;51.982;5.916;2023-07-31T11:18:54;100368.53;;;18.49;100.00
74329;BME280;62749;51.982;5.916;2023-07-31T11:21:24;100378.13;;;18.51;100.00
74329;BME280;62749;51.982;5.916;2023-07-31T11:23:57;100381.31;;;18.45;100.00
74329;BME280;62749;51.982;5.916;2023-07-31T11:26:29;100389.72;;;18.29;100.00
74329;BME280;62749;51.982;5.916;2023-07-31T11:28:58;100383.91;;;18.24;100.00
74329;BME280;62749;51.982;5.916;2023-07-31T11:31:27;100380.97;;;18.16;100.00
74329;BME280;62749;51.982;5.916;2023-07-31T11:34:04;100387.78;;;18.20;100.00
74329;BME280;62749;51.982;5.916;2023-07-31T11:36:34;100373.22;;;18.13;100.00
74329;BME280;62749;51.982;5.916;2023-07-31T11:39:08;100373.06;;;18.25;100.00
74329;BME280;62749;51.982;5.916;2023-07-31T11:41:43;100367.09;;;18.33;100.00
74329;BME280;62749;51.982;5.916;2023-07-31T11:44:12;100366.97;;;18.35;100.00
74329;BME280;62749;51.982;5.916;2023-07-31T11:46:42;100370.00;;;18.42;100.00
74329;BME280;62749;51.982;5.916;2023-07-31T11:49:11;100376.66;;;18.47;100.00
74329;BME280;62749;51.982;5.916;2023-07-31T11:51:41;100388.69;;;18.53;100.00
74329;BME280;62749;51.982;5.916;2023-07-31T11:54:11;100365.34;;;18.55;100.00
74329;BME280;62749;51.982;5.916;2023-07-31T11:56:44;100369.59;;;18.58;100.00
74329;BME280;62749;51.982;5.916;2023-07-31T11:59:14;100368.38;;;18.50;100.00
74329;BME280;62749;51.982;5.916;2023-07-31T12:01:44;100370.69;;;18.55;100.00
74329;BME280;62749;51.982;5.916;2023-07-31T12:04:16;100375.19;;;18.54;100.00
74329;BME280;62749;51.982;5.916;2023-07-31T12:06:46;100366.94;;;18.58;100.00
74329;BME280;62749;51.982;5.916;2023-07-31T12:09:16;100366.78;;;18.59;100.00
74329;BME280;62749;51.982;5.916;2023-07-31T12:11:49;100372.00;;;18.61;100.00
74329;BME280;62749;51.982;5.916;2023-07-31T12:14:20;100357.25;;;18.66;100.00
74329;BME280;62749;51.982;5.916;2023-07-31T12:16:53;100369.16;;;18.74;100.00
74329;BME280;62749;51.982;5.916;2023-07-31T12:19:23;100364.94;;;18.71;100.00
74329;BME280;62749;51.982;5.916;2023-07-31T12:21:54;100375.00;;;18.67;100.00
74329;BME280;62749;51.982;5.916;2023-07-31T12:24:24;100375.09;;;18.77;99.38
74329;BME280;62749;51.982;5.916;2023-07-31T12:26:57;100369.91;;;18.76;98.60
74329;BME280;62749;51.982;5.916;2023-07-31T12:29:33;100365.28;;;18.78;99.72
74329;BME280;62749;51.982;5.916;2023-07-31T12:32:04;100368.06;;;18.76;100.00
74329;BME280;62749;51.982;5.916;2023-07-31T12:34:42;100372.09;;;18.70;100.00
74329;BME280;62749;51.982;5.916;2023-07-31T12:37:12;100358.84;;;18.69;100.00
74329;BME280;62749;51.982;5.916;2023-07-31T12:39:41;100359.94;;;18.66;100.00
74329;BME280;62749;51.982;5.916;2023-07-31T12:42:13;100359.34;;;18.63;100.00
74329;BME280;62749;51.982;5.916;2023-07-31T12:44:42;100355.31;;;18.68;100.00
74329;BME280;62749;51.982;5.916;2023-07-31T12:47:12;100346.28;;;18.48;100.00
74329;BME280;62749;51.982;5.916;2023-07-31T12:49:42;100353.56;;;18.46;100.00
74329;BME280;62749;51.982;5.916;2023-07-31T12:52:11;100341.44;;;18.42;100.00
74329;BME280;62749;51.982;5.916;2023-07-31T12:54:40;100363.22;;;18.37;100.00
74329;BME280;62749;51.982;5.916;2023-07-31T12:57:12;100359.56;;;18.27;100.00